sensor_id;sensor_type;location;lat;lon;timestamp;P1;durP1;ratioP1;P2;durP2;ratioP2
5833;SDS011;2943;48.012;10.968;2023-01-09T00:00:12;10.37;;;6.70;;
5833;SDS011;2943;48.012;10.968;2023-01-09T00:02:40;14.03;;;9.10;;
5833;SDS011;2943;48.012;10.968;2023-01-09T00:05:09;11.40;;;6.50;;
5833;SDS011;2943;48.012;10.968;2023-01-09T00:07:38;11.70;;;7.00;;
5833;SDS011;2943;48.012;10.968;2023-01-09T00:10:05;10.00;;;6.77;;
5833;SDS011;2943;48.012;10.968;2023-01-09T00:12:33;8.27;;;5.93;;
5833;SDS011;2943;48.012;10.968;2023-01-09T00:15:01;7.03;;;5.20;;
5833;SDS011;2943;48.012;10.968;2023-01-09T00:17:28;8.43;;;5.67;;
5833;SDS011;2943;48.012;10.968;2023-01-09T00:19:55;7.43;;;5.70;;
5833;SDS011;2943;48.012;10.968;2023-01-09T00:22:22;7.70;;;5.87;;
5833;SDS011;2943;48.012;10.968;2023-01-09T00:24:51;8.20;;;6.10;;
5833;SDS011;2943;48.012;10.968;2023-01-09T00:27:17;6.93;;;5.60;;
5833;SDS011;2943;48.012;10.968;2023-01-09T00:29:44;6.63;;;5.50;;
5833;SDS011;2943;48.012;10.968;2023-01-09T00:32:11;9.50;;;5.80;;
5833;SDS011;2943;48.012;10.968;2023-01-09T00:34:38;9.40;;;6.00;;
5833;SDS011;2943;48.012;10.968;2023-01-09T00:37:07;11.00;;;6.30;;
5833;SDS011;2943;48.012;10.968;2023-01-09T00:39:36;8.50;;;5.40;;
5833;SDS011;2943;48.012;10.968;2023-01-09T00:42:04;8.90;;;6.03;;
5833;SDS011;2943;48.012;10.968;2023-01-09T00:44:34;9.47;;;5.80;;
5833;SDS011;2943;48.012;10.968;2023-01-09T00:47:08;7.07;;;5.50;;
5833;SDS011;2943;48.012;10.968;2023-01-09T00:49:38;6.97;;;4.77;;
5833;SDS011;2943;48.012;10.968;2023-01-09T00:52:08;8.63;;;5.70;;
5833;SDS011;2943;48.012;10.968;2023-01-09T00:54:36;7.67;;;5.00;;
5833;SDS011;2943;48.012;10.968;2023-01-09T00:57:06;6.73;;;4.73;;
5833;SDS011;2943;48.012;10.968;2023-01-09T00:59:36;6.83;;;4.60;;
5833;SDS011;2943;48.012;10.968;2023-01-09T01:02:03;8.00;;;4.77;;
5833;SDS011;2943;48.012;10.968;2023-01-09T01:04:30;6.07;;;4.50;;
5833;SDS011;2943;48.012;10.968;2023-01-09T01:07:15;6.03;;;4.70;;
5833;SDS011;2943;48.012;10.968;2023-01-09T01:09:59;7.60;;;4.93;;
5833;SDS011;2943;48.012;10.968;2023-01-09T01:12:27;5.97;;;4.03;;
5833;SDS011;2943;48.012;10.968;2023-01-09T01:14:54;5.03;;;4.03;;
5833;SDS011;2943;48.012;10.968;2023-01-09T01:17:21;5.50;;;4.30;;
5833;SDS011;2943;48.012;10.968;2023-01-09T01:19:48;4.47;;;4.03;;
5833;SDS011;2943;48.012;10.968;2023-01-09T01:22:14;5.20;;;4.20;;
5833;SDS011;2943;48.012;10.968;2023-01-09T01:24:41;6.60;;;4.40;;
5833;SDS011;2943;48.012;10.968;2023-01-09T01:27:08;7.53;;;4.03;;
5833;SDS011;2943;48.012;10.968;2023-01-09T01:29:36;6.70;;;4.00;;
5833;SDS011;2943;48.012;10.968;2023-01-09T01:32:03;5.30;;;4.80;;
5833;SDS011;2943;48.012;10.968;2023-01-09T01:34:30;5.00;;;3.53;;
5833;SDS011;2943;48.012;10.968;2023-01-09T01:36:57;4.97;;;3.67;;
5833;SDS011;2943;48.012;10.968;2023-01-09T01:39:23;6.53;;;3.93;;
5833;SDS011;2943;48.012;10.968;2023-01-09T01:41:50;5.27;;;4.07;;
5833;SDS011;2943;48.012;10.968;2023-01-09T01:47:19;4.00;;;3.33;;
5833;SDS011;2943;48.012;10.968;2023-01-09T01:49:48;4.83;;;3.33;;
5833;SDS011;2943;48.012;10.968;2023-01-09T01:52:15;6.80;;;3.60;;
5833;SDS011;2943;48.012;10.968;2023-01-09T01:54:43;4.20;;;3.40;;
5833;SDS011;2943;48.012;10.968;2023-01-09T01:57:10;4.90;;;3.60;;
5833;SDS011;2943;48.012;10.968;2023-01-09T01:59:38;6.60;;;3.57;;
5833;SDS011;2943;48.012;10.968;2023-01-09T02:02:08;5.73;;;3.93;;
5833;SDS011;2943;48.012;10.968;2023-01-09T02:04:37;3.73;;;2.83;;
5833;SDS011;2943;48.012;10.968;2023-01-09T02:07:06;5.07;;;3.70;;
5833;SDS011;2943;48.012;10.968;2023-01-09T02:09:35;4.43;;;3.30;;
5833;SDS011;2943;48.012;10.968;2023-01-09T02:12:12;3.97;;;3.23;;
5833;SDS011;2943;48.012;10.968;2023-01-09T02:14:42;4.13;;;3.43;;
5833;SDS011;2943;48.012;10.968;2023-01-09T02:17:14;3.67;;;3.10;;
5833;SDS011;2943;48.012;10.968;2023-01-09T02:20:07;3.83;;;3.33;;
5833;SDS011;2943;48.012;10.968;2023-01-09T02:22:59;4.33;;;2.90;;
5833;SDS011;2943;48.012;10.968;2023-01-09T02:25:51;4.87;;;3.30;;
5833;SDS011;2943;48.012;10.968;2023-01-09T02:28:40;3.00;;;2.77;;
5833;SDS011;2943;48.012;10.968;2023-01-09T02:31:24;3.60;;;3.20;;
5833;SDS011;2943;48.012;10.968;2023-01-09T02:33:57;3.90;;;2.97;;
5833;SDS011;2943;48.012;10.968;2023-01-09T02:36:33;3.10;;;2.57;;
5833;SDS011;2943;48.012;10.968;2023-01-09T02:39:12;3.60;;;3.30;;
5833;SDS011;2943;48.012;10.968;2023-01-09T02:41:47;3.40;;;3.10;;
5833;SDS011;2943;48.012;10.968;2023-01-09T02:44:23;3.77;;;3.27;;
5833;SDS011;2943;48.012;10.968;2023-01-09T02:47:00;3.77;;;3.00;;
5833;SDS011;2943;48.012;10.968;2023-01-09T02:49:28;3.30;;;2.77;;
5833;SDS011;2943;48.012;10.968;2023-01-09T02:51:58;3.20;;;2.90;;
5833;SDS011;2943;48.012;10.968;2023-01-09T02:54:34;3.33;;;2.83;;
5833;SDS011;2943;48.012;10.968;2023-01-09T02:57:17;2.90;;;2.67;;
5833;SDS011;2943;48.012;10.968;2023-01-09T02:59:57;3.00;;;2.70;;
5833;SDS011;2943;48.012;10.968;2023-01-09T03:02:38;5.10;;;2.53;;
5833;SDS011;2943;48.012;10.968;2023-01-09T03:05:15;2.10;;;2.00;;
5833;SDS011;2943;48.012;10.968;2023-01-09T03:07:48;2.60;;;2.40;;
5833;SDS011;2943;48.012;10.968;2023-01-09T03:10:22;4.80;;;2.33;;
5833;SDS011;2943;48.012;10.968;2023-01-09T03:12:53;2.33;;;2.13;;
5833;SDS011;2943;48.012;10.968;2023-01-09T03:15:23;2.40;;;2.20;;
5833;SDS011;2943;48.012;10.968;2023-01-09T03:17:54;2.83;;;2.53;;
5833;SDS011;2943;48.012;10.968;2023-01-09T03:20:23;4.90;;;1.77;;
5833;SDS011;2943;48.012;10.968;2023-01-09T03:22:53;1.83;;;1.70;;
5833;SDS011;2943;48.012;10.968;2023-01-09T03:25:21;2.03;;;1.83;;
5833;SDS011;2943;48.012;10.968;2023-01-09T03:27:48;1.77;;;1.67;;
5833;SDS011;2943;48.012;10.968;2023-01-09T03:30:21;1.83;;;1.63;;
5833;SDS011;2943;48.012;10.968;2023-01-09T03:32:48;3.80;;;2.00;;
5833;SDS011;2943;48.012;10.968;2023-01-09T03:35:16;2.07;;;1.90;;
5833;SDS011;2943;48.012;10.968;2023-01-09T03:37:43;1.93;;;1.73;;
5833;SDS011;2943;48.012;10.968;2023-01-09T03:40:10;1.90;;;1.80;;
5833;SDS011;2943;48.012;10.968;2023-01-09T03:42:36;2.50;;;1.70;;
5833;SDS011;2943;48.012;10.968;2023-01-09T03:45:04;3.47;;;1.60;;
5833;SDS011;2943;48.012;10.968;2023-01-09T03:47:31;1.30;;;1.20;;
5833;SDS011;2943;48.012;10.968;2023-01-09T03:49:58;1.43;;;1.33;;
5833;SDS011;2943;48.012;10.968;2023-01-09T03:52:26;1.40;;;1.30;;
5833;SDS011;2943;48.012;10.968;2023-01-09T03:54:53;1.40;;;1.30;;
5833;SDS011;2943;48.012;10.968;2023-01-09T03:57:20;1.60;;;1.23;;
5833;SDS011;2943;48.012;10.968;2023-01-09T03:59:48;1.37;;;1.27;;
5833;SDS011;2943;48.012;10.968;2023-01-09T04:02:14;1.47;;;1.37;;
5833;SDS011;2943;48.012;10.968;2023-01-09T04:04:42;1.60;;;1.50;;
5833;SDS011;2943;48.012;10.968;2023-01-09T04:07:09;2.90;;;1.80;;
5833;SDS011;2943;48.012;10.968;2023-01-09T04:09:37;3.07;;;2.40;;
5833;SDS011;2943;48.012;10.968;2023-01-09T04:12:04;1.40;;;1.30;;
5833;SDS011;2943;48.012;10.968;2023-01-09T04:14:31;1.20;;;1.10;;
5833;SDS011;2943;48.012;10.968;2023-01-09T04:16:58;1.27;;;1.17;;
5833;SDS011;2943;48.012;10.968;2023-01-09T04:19:25;1.40;;;1.30;;
5833;SDS011;2943;48.012;10.968;2023-01-09T04:21:52;1.30;;;1.20;;
5833;SDS011;2943;48.012;10.968;2023-01-09T04:24:19;1.20;;;1.10;;
5833;SDS011;2943;48.012;10.968;2023-01-09T04:26:47;1.33;;;1.10;;
5833;SDS011;2943;48.012;10.968;2023-01-09T04:29:13;0.90;;;0.90;;
5833;SDS011;2943;48.012;10.968;2023-01-09T04:31:43;1.57;;;1.30;;
5833;SDS011;2943;48.012;10.968;2023-01-09T04:34:10;1.40;;;1.30;;
5833;SDS011;2943;48.012;10.968;2023-01-09T04:36:36;1.30;;;1.20;;
5833;SDS011;2943;48.012;10.968;2023-01-09T04:39:04;1.30;;;1.20;;
5833;SDS011;2943;48.012;10.968;2023-01-09T04:41:31;1.53;;;1.43;;
5833;SDS011;2943;48.012;10.968;2023-01-09T04:44:22;1.20;;;1.10;;
5833;SDS011;2943;48.012;10.968;2023-01-09T04:46:50;1.33;;;1.23;;
5833;SDS011;2943;48.012;10.968;2023-01-09T04:49:18;1.37;;;1.27;;
5833;SDS011;2943;48.012;10.968;2023-01-09T04:51:45;1.67;;;1.57;;
5833;SDS011;2943;48.012;10.968;2023-01-09T04:54:12;1.20;;;1.10;;
5833;SDS011;2943;48.012;10.968;2023-01-09T04:56:39;1.30;;;1.20;;
5833;SDS011;2943;48.012;10.968;2023-01-09T04:59:06;1.20;;;1.10;;
5833;SDS011;2943;48.012;10.968;2023-01-09T05:01:35;1.73;;;1.63;;
5833;SDS011;2943;48.012;10.968;2023-01-09T05:04:02;1.20;;;1.10;;
5833;SDS011;2943;48.012;10.968;2023-01-09T05:06:30;1.30;;;1.20;;
5833;SDS011;2943;48.012;10.968;2023-01-09T05:08:58;1.30;;;1.20;;
5833;SDS011;2943;48.012;10.968;2023-01-09T05:11:25;0.93;;;0.93;;
5833;SDS011;2943;48.012;10.968;2023-01-09T05:13:52;1.73;;;1.10;;
5833;SDS011;2943;48.012;10.968;2023-01-09T05:16:19;1.20;;;1.13;;
5833;SDS011;2943;48.012;10.968;2023-01-09T05:18:48;0.93;;;0.93;;
5833;SDS011;2943;48.012;10.968;2023-01-09T05:21:20;1.10;;;1.00;;
5833;SDS011;2943;48.012;10.968;2023-01-09T05:23:47;1.23;;;1.00;;
5833;SDS011;2943;48.012;10.968;2023-01-09T05:26:14;1.27;;;1.07;;
5833;SDS011;2943;48.012;10.968;2023-01-09T05:28:41;1.20;;;1.10;;
5833;SDS011;2943;48.012;10.968;2023-01-09T05:31:07;0.93;;;0.93;;
5833;SDS011;2943;48.012;10.968;2023-01-09T05:33:34;1.10;;;1.10;;
5833;SDS011;2943;48.012;10.968;2023-01-09T05:36:03;1.00;;;1.00;;
5833;SDS011;2943;48.012;10.968;2023-01-09T05:38:30;1.00;;;0.90;;
5833;SDS011;2943;48.012;10.968;2023-01-09T05:40:57;0.90;;;0.90;;
5833;SDS011;2943;48.012;10.968;2023-01-09T05:43:23;1.00;;;1.00;;
5833;SDS011;2943;48.012;10.968;2023-01-09T05:45:50;1.83;;;1.17;;
5833;SDS011;2943;48.012;10.968;2023-01-09T05:48:17;0.93;;;0.93;;
5833;SDS011;2943;48.012;10.968;2023-01-09T05:50:44;1.10;;;0.97;;
5833;SDS011;2943;48.012;10.968;2023-01-09T05:53:12;0.97;;;0.97;;
5833;SDS011;2943;48.012;10.968;2023-01-09T05:55:39;1.27;;;1.17;;
5833;SDS011;2943;48.012;10.968;2023-01-09T05:58:06;0.90;;;0.90;;
5833;SDS011;2943;48.012;10.968;2023-01-09T06:00:33;1.17;;;1.10;;
5833;SDS011;2943;48.012;10.968;2023-01-09T06:03:00;1.13;;;1.03;;
5833;SDS011;2943;48.012;10.968;2023-01-09T06:05:27;1.00;;;1.00;;
5833;SDS011;2943;48.012;10.968;2023-01-09T06:07:53;1.17;;;1.10;;
5833;SDS011;2943;48.012;10.968;2023-01-09T06:10:22;1.20;;;1.10;;
5833;SDS011;2943;48.012;10.968;2023-01-09T06:12:49;1.10;;;1.00;;
5833;SDS011;2943;48.012;10.968;2023-01-09T06:15:17;1.47;;;1.10;;
5833;SDS011;2943;48.012;10.968;2023-01-09T06:17:45;1.03;;;1.03;;
5833;SDS011;2943;48.012;10.968;2023-01-09T06:20:12;1.10;;;1.10;;
5833;SDS011;2943;48.012;10.968;2023-01-09T06:22:39;1.03;;;1.03;;
5833;SDS011;2943;48.012;10.968;2023-01-09T06:25:06;1.20;;;1.10;;
5833;SDS011;2943;48.012;10.968;2023-01-09T06:27:38;1.00;;;0.90;;
5833;SDS011;2943;48.012;10.968;2023-01-09T06:30:06;1.10;;;1.00;;
5833;SDS011;2943;48.012;10.968;2023-01-09T06:32:34;1.00;;;1.00;;
5833;SDS011;2943;48.012;10.968;2023-01-09T06:35:00;1.00;;;1.00;;
5833;SDS011;2943;48.012;10.968;2023-01-09T06:37:28;1.30;;;0.90;;
5833;SDS011;2943;48.012;10.968;2023-01-09T06:39:54;1.03;;;1.03;;
5833;SDS011;2943;48.012;10.968;2023-01-09T06:42:21;1.20;;;1.10;;
5833;SDS011;2943;48.012;10.968;2023-01-09T06:44:50;1.10;;;1.00;;
5833;SDS011;2943;48.012;10.968;2023-01-09T06:47:17;0.90;;;0.90;;
5833;SDS011;2943;48.012;10.968;2023-01-09T06:49:44;0.90;;;0.90;;
5833;SDS011;2943;48.012;10.968;2023-01-09T06:52:11;11.00;;;4.83;;
5833;SDS011;2943;48.012;10.968;2023-01-09T06:54:38;0.90;;;0.90;;
5833;SDS011;2943;48.012;10.968;2023-01-09T06:57:04;1.10;;;1.00;;
5833;SDS011;2943;48.012;10.968;2023-01-09T06:59:31;1.20;;;1.10;;
5833;SDS011;2943;48.012;10.968;2023-01-09T07:01:59;1.10;;;1.10;;
5833;SDS011;2943;48.012;10.968;2023-01-09T07:04:26;1.20;;;1.10;;
5833;SDS011;2943;48.012;10.968;2023-01-09T07:06:53;1.20;;;1.10;;
5833;SDS011;2943;48.012;10.968;2023-01-09T07:09:20;1.20;;;1.10;;
5833;SDS011;2943;48.012;10.968;2023-01-09T07:11:47;0.90;;;0.90;;
5833;SDS011;2943;48.012;10.968;2023-01-09T07:14:14;1.50;;;1.40;;
5833;SDS011;2943;48.012;10.968;2023-01-09T07:16:40;1.20;;;1.20;;
5833;SDS011;2943;48.012;10.968;2023-01-09T07:19:09;1.10;;;1.00;;
5833;SDS011;2943;48.012;10.968;2023-01-09T07:21:35;1.40;;;1.30;;
5833;SDS011;2943;48.012;10.968;2023-01-09T07:24:02;1.30;;;1.20;;
5833;SDS011;2943;48.012;10.968;2023-01-09T07:26:29;1.20;;;1.10;;
5833;SDS011;2943;48.012;10.968;2023-01-09T07:28:56;1.73;;;1.10;;
5833;SDS011;2943;48.012;10.968;2023-01-09T07:31:23;1.20;;;1.10;;
5833;SDS011;2943;48.012;10.968;2023-01-09T07:33:50;1.40;;;1.10;;
5833;SDS011;2943;48.012;10.968;2023-01-09T07:36:18;2.27;;;1.20;;
5833;SDS011;2943;48.012;10.968;2023-01-09T07:38:45;2.03;;;1.30;;
5833;SDS011;2943;48.012;10.968;2023-01-09T07:41:12;2.40;;;1.40;;
5833;SDS011;2943;48.012;10.968;2023-01-09T07:43:38;1.30;;;1.20;;
5833;SDS011;2943;48.012;10.968;2023-01-09T07:46:05;2.60;;;1.30;;
5833;SDS011;2943;48.012;10.968;2023-01-09T07:48:32;1.00;;;1.00;;
5833;SDS011;2943;48.012;10.968;2023-01-09T07:50:59;1.13;;;1.03;;
5833;SDS011;2943;48.012;10.968;2023-01-09T07:53:27;1.30;;;1.20;;
5833;SDS011;2943;48.012;10.968;2023-01-09T07:55:55;3.23;;;1.10;;
5833;SDS011;2943;48.012;10.968;2023-01-09T07:58:21;4.23;;;1.27;;
5833;SDS011;2943;48.012;10.968;2023-01-09T08:00:49;1.87;;;1.20;;
5833;SDS011;2943;48.012;10.968;2023-01-09T08:03:16;1.20;;;1.10;;
5833;SDS011;2943;48.012;10.968;2023-01-09T08:05:43;1.90;;;1.40;;
5833;SDS011;2943;48.012;10.968;2023-01-09T08:08:10;2.73;;;1.23;;
5833;SDS011;2943;48.012;10.968;2023-01-09T08:10:39;1.20;;;1.10;;
5833;SDS011;2943;48.012;10.968;2023-01-09T08:13:06;1.43;;;1.13;;
5833;SDS011;2943;48.012;10.968;2023-01-09T08:15:33;1.20;;;1.10;;
5833;SDS011;2943;48.012;10.968;2023-01-09T08:18:00;1.03;;;1.03;;
5833;SDS011;2943;48.012;10.968;2023-01-09T08:20:27;2.50;;;1.67;;
5833;SDS011;2943;48.012;10.968;2023-01-09T08:22:54;1.43;;;1.20;;
5833;SDS011;2943;48.012;10.968;2023-01-09T08:25:20;3.63;;;1.50;;
5833;SDS011;2943;48.012;10.968;2023-01-09T08:27:49;1.90;;;1.20;;
5833;SDS011;2943;48.012;10.968;2023-01-09T08:30:16;4.43;;;1.50;;
5833;SDS011;2943;48.012;10.968;2023-01-09T08:32:47;1.93;;;1.53;;
5833;SDS011;2943;48.012;10.968;2023-01-09T08:35:15;2.10;;;1.27;;
5833;SDS011;2943;48.012;10.968;2023-01-09T08:37:42;2.30;;;1.33;;
5833;SDS011;2943;48.012;10.968;2023-01-09T08:40:09;1.67;;;1.20;;
5833;SDS011;2943;48.012;10.968;2023-01-09T08:42:37;2.80;;;1.20;;
5833;SDS011;2943;48.012;10.968;2023-01-09T08:45:23;4.00;;;1.23;;
5833;SDS011;2943;48.012;10.968;2023-01-09T08:48:07;1.20;;;1.10;;
5833;SDS011;2943;48.012;10.968;2023-01-09T08:50:34;3.00;;;1.50;;
5833;SDS011;2943;48.012;10.968;2023-01-09T08:53:01;5.00;;;1.63;;
5833;SDS011;2943;48.012;10.968;2023-01-09T08:55:28;1.53;;;1.37;;
5833;SDS011;2943;48.012;10.968;2023-01-09T08:57:55;1.30;;;1.20;;
5833;SDS011;2943;48.012;10.968;2023-01-09T09:00:23;2.13;;;1.30;;
5833;SDS011;2943;48.012;10.968;2023-01-09T09:02:51;2.23;;;1.20;;
5833;SDS011;2943;48.012;10.968;2023-01-09T09:05:18;6.53;;;1.60;;
5833;SDS011;2943;48.012;10.968;2023-01-09T09:07:46;2.00;;;1.30;;
5833;SDS011;2943;48.012;10.968;2023-01-09T09:10:14;1.73;;;1.20;;
5833;SDS011;2943;48.012;10.968;2023-01-09T09:12:41;1.83;;;1.13;;
5833;SDS011;2943;48.012;10.968;2023-01-09T09:15:09;2.17;;;1.20;;
5833;SDS011;2943;48.012;10.968;2023-01-09T09:17:42;6.93;;;1.30;;
5833;SDS011;2943;48.012;10.968;2023-01-09T09:20:10;1.40;;;1.30;;
5833;SDS011;2943;48.012;10.968;2023-01-09T09:22:37;1.20;;;1.10;;
5833;SDS011;2943;48.012;10.968;2023-01-09T09:25:04;1.20;;;1.10;;
5833;SDS011;2943;48.012;10.968;2023-01-09T09:27:32;3.63;;;1.60;;
5833;SDS011;2943;48.012;10.968;2023-01-09T09:30:02;1.40;;;1.20;;
5833;SDS011;2943;48.012;10.968;2023-01-09T09:32:29;1.17;;;1.10;;
5833;SDS011;2943;48.012;10.968;2023-01-09T09:34:58;1.30;;;1.20;;
5833;SDS011;2943;48.012;10.968;2023-01-09T09:37:25;4.07;;;1.40;;
5833;SDS011;2943;48.012;10.968;2023-01-09T09:39:52;2.27;;;1.40;;
5833;SDS011;2943;48.012;10.968;2023-01-09T09:45:37;1.10;;;0.93;;
5833;SDS011;2943;48.012;10.968;2023-01-09T09:48:16;6.07;;;1.20;;
5833;SDS011;2943;48.012;10.968;2023-01-09T09:50:56;1.90;;;1.30;;
5833;SDS011;2943;48.012;10.968;2023-01-09T09:53:54;1.43;;;1.33;;
5833;SDS011;2943;48.012;10.968;2023-01-09T09:56:25;5.53;;;1.20;;
5833;SDS011;2943;48.012;10.968;2023-01-09T09:58:55;1.53;;;1.20;;
5833;SDS011;2943;48.012;10.968;2023-01-09T10:01:28;1.30;;;1.20;;
5833;SDS011;2943;48.012;10.968;2023-01-09T10:04:02;2.37;;;1.47;;
5833;SDS011;2943;48.012;10.968;2023-01-09T10:09:41;6.53;;;1.50;;
5833;SDS011;2943;48.012;10.968;2023-01-09T10:12:16;5.37;;;1.60;;
5833;SDS011;2943;48.012;10.968;2023-01-09T10:14:52;2.07;;;1.50;;
5833;SDS011;2943;48.012;10.968;2023-01-09T10:17:23;1.80;;;1.27;;
5833;SDS011;2943;48.012;10.968;2023-01-09T10:20:27;3.67;;;1.30;;
5833;SDS011;2943;48.012;10.968;2023-01-09T10:23:23;2.30;;;1.20;;
5833;SDS011;2943;48.012;10.968;2023-01-09T10:26:04;3.50;;;1.33;;
5833;SDS011;2943;48.012;10.968;2023-01-09T10:28:49;3.73;;;1.23;;
5833;SDS011;2943;48.012;10.968;2023-01-09T10:31:31;1.20;;;1.10;;
5833;SDS011;2943;48.012;10.968;2023-01-09T10:34:08;3.83;;;1.30;;
5833;SDS011;2943;48.012;10.968;2023-01-09T10:36:48;3.93;;;1.30;;
5833;SDS011;2943;48.012;10.968;2023-01-09T10:39:24;5.43;;;1.40;;
5833;SDS011;2943;48.012;10.968;2023-01-09T10:41:59;4.27;;;1.50;;
5833;SDS011;2943;48.012;10.968;2023-01-09T10:44:35;2.93;;;1.50;;
5833;SDS011;2943;48.012;10.968;2023-01-09T10:47:10;2.90;;;1.30;;
5833;SDS011;2943;48.012;10.968;2023-01-09T10:49:41;3.63;;;1.40;;
5833;SDS011;2943;48.012;10.968;2023-01-09T10:52:11;6.93;;;1.23;;
5833;SDS011;2943;48.012;10.968;2023-01-09T10:54:43;2.60;;;1.20;;
5833;SDS011;2943;48.012;10.968;2023-01-09T10:57:22;4.30;;;1.30;;
5833;SDS011;2943;48.012;10.968;2023-01-09T10:59:59;2.23;;;1.33;;
5833;SDS011;2943;48.012;10.968;2023-01-09T11:02:27;5.53;;;1.40;;
5833;SDS011;2943;48.012;10.968;2023-01-09T11:04:56;3.23;;;1.47;;
5833;SDS011;2943;48.012;10.968;2023-01-09T11:07:24;4.00;;;1.37;;
5833;SDS011;2943;48.012;10.968;2023-01-09T11:09:54;1.63;;;1.40;;
5833;SDS011;2943;48.012;10.968;2023-01-09T11:12:25;1.23;;;1.10;;
5833;SDS011;2943;48.012;10.968;2023-01-09T11:14:53;2.97;;;1.40;;
5833;SDS011;2943;48.012;10.968;2023-01-09T11:17:20;3.67;;;1.40;;
5833;SDS011;2943;48.012;10.968;2023-01-09T11:20:00;2.20;;;1.40;;
5833;SDS011;2943;48.012;10.968;2023-01-09T11:22:28;3.00;;;1.40;;
5833;SDS011;2943;48.012;10.968;2023-01-09T11:24:58;6.43;;;1.40;;
5833;SDS011;2943;48.012;10.968;2023-01-09T11:27:27;3.47;;;1.30;;
5833;SDS011;2943;48.012;10.968;2023-01-09T11:30:14;2.53;;;1.43;;
5833;SDS011;2943;48.012;10.968;2023-01-09T11:32:44;6.80;;;1.83;;
5833;SDS011;2943;48.012;10.968;2023-01-09T11:35:16;2.13;;;1.30;;
5833;SDS011;2943;48.012;10.968;2023-01-09T11:37:45;3.33;;;1.30;;
5833;SDS011;2943;48.012;10.968;2023-01-09T11:40:15;2.57;;;1.40;;
5833;SDS011;2943;48.012;10.968;2023-01-09T11:45:40;4.20;;;1.30;;
5833;SDS011;2943;48.012;10.968;2023-01-09T11:48:30;5.07;;;1.60;;
5833;SDS011;2943;48.012;10.968;2023-01-09T11:51:00;3.80;;;1.17;;
5833;SDS011;2943;48.012;10.968;2023-01-09T11:53:27;6.33;;;1.23;;
5833;SDS011;2943;48.012;10.968;2023-01-09T11:55:56;5.30;;;1.87;;
5833;SDS011;2943;48.012;10.968;2023-01-09T11:58:26;1.67;;;1.30;;
5833;SDS011;2943;48.012;10.968;2023-01-09T12:00:59;2.33;;;1.27;;
5833;SDS011;2943;48.012;10.968;2023-01-09T12:03:38;3.93;;;1.10;;
5833;SDS011;2943;48.012;10.968;2023-01-09T12:06:20;3.23;;;1.30;;
5833;SDS011;2943;48.012;10.968;2023-01-09T12:08:54;1.30;;;1.20;;
5833;SDS011;2943;48.012;10.968;2023-01-09T12:11:26;5.40;;;1.33;;
5833;SDS011;2943;48.012;10.968;2023-01-09T12:14:01;1.80;;;1.23;;
5833;SDS011;2943;48.012;10.968;2023-01-09T12:16:47;5.20;;;1.63;;
5833;SDS011;2943;48.012;10.968;2023-01-09T12:19:35;4.73;;;1.20;;
5833;SDS011;2943;48.012;10.968;2023-01-09T12:22:14;3.07;;;1.57;;
5833;SDS011;2943;48.012;10.968;2023-01-09T12:24:52;1.63;;;1.10;;
5833;SDS011;2943;48.012;10.968;2023-01-09T12:27:36;3.43;;;1.20;;
5833;SDS011;2943;48.012;10.968;2023-01-09T12:30:23;2.30;;;1.47;;
5833;SDS011;2943;48.012;10.968;2023-01-09T12:33:03;7.13;;;1.50;;
5833;SDS011;2943;48.012;10.968;2023-01-09T12:35:43;1.77;;;1.23;;
5833;SDS011;2943;48.012;10.968;2023-01-09T12:38:18;8.63;;;1.40;;
5833;SDS011;2943;48.012;10.968;2023-01-09T12:41:07;9.07;;;1.53;;
5833;SDS011;2943;48.012;10.968;2023-01-09T12:43:57;1.40;;;1.17;;
5833;SDS011;2943;48.012;10.968;2023-01-09T12:46:35;1.60;;;1.03;;
5833;SDS011;2943;48.012;10.968;2023-01-09T12:49:13;3.63;;;1.30;;
5833;SDS011;2943;48.012;10.968;2023-01-09T12:51:48;9.20;;;1.53;;
5833;SDS011;2943;48.012;10.968;2023-01-09T12:54:26;2.27;;;1.20;;
5833;SDS011;2943;48.012;10.968;2023-01-09T12:56:59;4.03;;;1.37;;
5833;SDS011;2943;48.012;10.968;2023-01-09T12:59:29;1.63;;;1.23;;
5833;SDS011;2943;48.012;10.968;2023-01-09T13:02:03;2.60;;;1.47;;
5833;SDS011;2943;48.012;10.968;2023-01-09T13:04:38;5.20;;;1.50;;
5833;SDS011;2943;48.012;10.968;2023-01-09T13:07:10;3.23;;;1.50;;
5833;SDS011;2943;48.012;10.968;2023-01-09T13:09:43;3.27;;;1.30;;
5833;SDS011;2943;48.012;10.968;2023-01-09T13:12:14;2.20;;;1.23;;
5833;SDS011;2943;48.012;10.968;2023-01-09T13:14:47;1.97;;;1.20;;
5833;SDS011;2943;48.012;10.968;2023-01-09T13:17:19;1.67;;;1.40;;
5833;SDS011;2943;48.012;10.968;2023-01-09T13:19:51;2.80;;;1.50;;
5833;SDS011;2943;48.012;10.968;2023-01-09T13:22:18;3.53;;;1.50;;
5833;SDS011;2943;48.012;10.968;2023-01-09T13:25:00;1.30;;;1.20;;
5833;SDS011;2943;48.012;10.968;2023-01-09T13:27:39;3.87;;;1.60;;
5833;SDS011;2943;48.012;10.968;2023-01-09T13:30:15;2.97;;;1.27;;
5833;SDS011;2943;48.012;10.968;2023-01-09T13:32:48;1.90;;;1.33;;
5833;SDS011;2943;48.012;10.968;2023-01-09T13:35:25;2.20;;;1.30;;
5833;SDS011;2943;48.012;10.968;2023-01-09T13:37:52;3.77;;;1.43;;
5833;SDS011;2943;48.012;10.968;2023-01-09T13:40:26;2.83;;;1.40;;
5833;SDS011;2943;48.012;10.968;2023-01-09T13:42:55;1.80;;;1.67;;
5833;SDS011;2943;48.012;10.968;2023-01-09T13:45:24;3.10;;;1.40;;
5833;SDS011;2943;48.012;10.968;2023-01-09T13:50:54;1.30;;;1.20;;
5833;SDS011;2943;48.012;10.968;2023-01-09T13:54:00;2.93;;;1.50;;
5833;SDS011;2943;48.012;10.968;2023-01-09T13:56:26;2.17;;;1.80;;
5833;SDS011;2943;48.012;10.968;2023-01-09T13:58:57;4.53;;;1.30;;
5833;SDS011;2943;48.012;10.968;2023-01-09T14:01:39;3.63;;;1.30;;
5833;SDS011;2943;48.012;10.968;2023-01-09T14:04:35;1.90;;;1.40;;
5833;SDS011;2943;48.012;10.968;2023-01-09T14:07:14;6.93;;;1.47;;
5833;SDS011;2943;48.012;10.968;2023-01-09T14:09:46;1.40;;;1.30;;
5833;SDS011;2943;48.012;10.968;2023-01-09T14:12:20;3.03;;;1.20;;
5833;SDS011;2943;48.012;10.968;2023-01-09T14:14:48;2.70;;;1.23;;
5833;SDS011;2943;48.012;10.968;2023-01-09T14:17:20;3.07;;;1.47;;
5833;SDS011;2943;48.012;10.968;2023-01-09T14:19:53;1.83;;;1.00;;
5833;SDS011;2943;48.012;10.968;2023-01-09T14:22:27;6.63;;;1.23;;
5833;SDS011;2943;48.012;10.968;2023-01-09T14:24:59;3.67;;;1.30;;
5833;SDS011;2943;48.012;10.968;2023-01-09T14:27:50;5.30;;;1.80;;
5833;SDS011;2943;48.012;10.968;2023-01-09T14:30:33;1.63;;;1.13;;
5833;SDS011;2943;48.012;10.968;2023-01-09T14:33:02;1.30;;;1.20;;
5833;SDS011;2943;48.012;10.968;2023-01-09T14:35:50;2.80;;;1.60;;
5833;SDS011;2943;48.012;10.968;2023-01-09T14:38:31;2.50;;;1.40;;
5833;SDS011;2943;48.012;10.968;2023-01-09T14:41:02;2.03;;;1.20;;
5833;SDS011;2943;48.012;10.968;2023-01-09T14:43:37;3.23;;;1.30;;
5833;SDS011;2943;48.012;10.968;2023-01-09T14:46:10;1.47;;;1.37;;
5833;SDS011;2943;48.012;10.968;2023-01-09T14:48:41;1.73;;;1.30;;
5833;SDS011;2943;48.012;10.968;2023-01-09T14:51:23;2.53;;;1.30;;
5833;SDS011;2943;48.012;10.968;2023-01-09T14:53:54;1.50;;;1.37;;
5833;SDS011;2943;48.012;10.968;2023-01-09T14:56:25;2.90;;;1.50;;
5833;SDS011;2943;48.012;10.968;2023-01-09T14:59:04;4.50;;;1.50;;
5833;SDS011;2943;48.012;10.968;2023-01-09T15:01:32;1.20;;;1.10;;
5833;SDS011;2943;48.012;10.968;2023-01-09T15:04:01;1.67;;;1.57;;
5833;SDS011;2943;48.012;10.968;2023-01-09T15:06:32;4.20;;;1.60;;
5833;SDS011;2943;48.012;10.968;2023-01-09T15:09:03;5.67;;;1.60;;
5833;SDS011;2943;48.012;10.968;2023-01-09T15:11:32;2.63;;;2.13;;
5833;SDS011;2943;48.012;10.968;2023-01-09T15:14:04;3.13;;;2.20;;
5833;SDS011;2943;48.012;10.968;2023-01-09T15:16:32;2.40;;;2.20;;
5833;SDS011;2943;48.012;10.968;2023-01-09T15:19:00;1.97;;;1.77;;
5833;SDS011;2943;48.012;10.968;2023-01-09T15:21:29;2.17;;;1.80;;
5833;SDS011;2943;48.012;10.968;2023-01-09T15:24:11;5.00;;;1.77;;
5833;SDS011;2943;48.012;10.968;2023-01-09T15:26:38;4.43;;;3.17;;
5833;SDS011;2943;48.012;10.968;2023-01-09T15:29:10;1.97;;;1.77;;
5833;SDS011;2943;48.012;10.968;2023-01-09T15:31:39;4.43;;;1.87;;
5833;SDS011;2943;48.012;10.968;2023-01-09T15:34:08;2.13;;;1.93;;
5833;SDS011;2943;48.012;10.968;2023-01-09T15:36:40;2.60;;;1.90;;
5833;SDS011;2943;48.012;10.968;2023-01-09T15:39:07;2.00;;;1.73;;